createdAt,value
2022-10-13T00:01:45.556Z,100432.31
2022-10-13T00:04:14.329Z,100435.28
2022-10-13T00:06:41.735Z,100434.59
2022-10-13T00:09:09.245Z,100433.59
2022-10-13T00:11:36.640Z,100427.75
2022-10-13T00:14:05.433Z,100433.47
2022-10-13T00:16:36.262Z,100433.28
2022-10-13T00:19:03.751Z,100433.09
2022-10-13T00:21:32.609Z,100427.44
2022-10-13T00:24:00.102Z,100426.00
2022-10-13T00:26:27.959Z,100426.81
2022-10-13T00:28:55.725Z,100426.81
2022-10-13T00:31:25.042Z,100425.84
2022-10-13T00:33:52.800Z,100419.03
2022-10-13T00:36:22.073Z,100423.19
2022-10-13T00:38:50.932Z,100428.50
2022-10-13T00:41:18.655Z,100423.03
2022-10-13T00:43:51.902Z,100424.50
2022-10-13T00:46:20.025Z,100413.88
2022-10-13T00:48:48.079Z,100413.38
2022-10-13T00:51:17.305Z,100412.38
2022-10-13T00:53:44.909Z,100425.03
2022-10-13T00:56:15.149Z,100422.69
2022-10-13T00:58:43.927Z,100418.53
2022-10-13T01:01:11.817Z,100412.06
2022-10-13T01:03:39.614Z,100429.84
2022-10-13T01:06:08.066Z,100421.84
2022-10-13T01:08:35.760Z,100412.19
2022-10-13T01:11:18.197Z,100404.22
2022-10-13T01:13:51.733Z,100412.22
2022-10-13T01:16:23.426Z,100402.38
2022-10-13T01:18:56.646Z,100405.19
2022-10-13T01:21:29.180Z,100406.69
2022-10-13T01:24:22.640Z,100407.03
2022-10-13T01:27:08.997Z,100399.91
2022-10-13T01:30:10.409Z,100396.53
2022-10-13T01:32:52.304Z,100392.25
2022-10-13T01:35:22.879Z,100383.91
2022-10-13T01:37:56.690Z,100388.88
2022-10-13T01:40:27.193Z,100383.09
2022-10-13T01:42:58.829Z,100385.25
2022-10-13T01:45:32.314Z,100378.81
2022-10-13T01:48:00.635Z,100374.31
2022-10-13T01:50:29.085Z,100371.63
2022-10-13T01:52:56.846Z,100369.63
2022-10-13T01:55:24.348Z,100372.31
2022-10-13T01:57:51.726Z,100365.00
2022-10-13T02:00:22.366Z,100362.50
2022-10-13T02:03:00.613Z,100362.16
2022-10-13T02:05:37.190Z,100363.63
2022-10-13T02:08:09.718Z,100364.16
2022-10-13T02:10:43.078Z,100363.00
2022-10-13T02:13:14.009Z,100343.88
2022-10-13T02:15:44.374Z,100348.72
2022-10-13T02:18:14.987Z,100338.72
2022-10-13T02:20:44.307Z,100347.53
2022-10-13T02:23:14.347Z,100338.22
2022-10-13T02:25:42.426Z,100338.22
2022-10-13T02:28:11.079Z,100337.38
2022-10-13T02:30:43.792Z,100340.72
2022-10-13T02:33:14.195Z,100341.56
2022-10-13T02:35:41.917Z,100340.69
2022-10-13T02:38:09.450Z,100343.88
2022-10-13T02:40:36.953Z,100343.19
2022-10-13T02:43:04.440Z,100338.72
2022-10-13T02:45:31.806Z,100339.22
2022-10-13T02:47:59.232Z,100333.75
2022-10-13T02:50:28.145Z,100328.38
2022-10-13T02:52:57.335Z,100333.03
2022-10-13T02:55:24.791Z,100313.91
2022-10-13T02:57:56.829Z,100326.75
2022-10-13T03:00:24.355Z,100327.84
2022-10-13T03:02:51.726Z,100331.06
2022-10-13T03:05:19.105Z,100335.22
2022-10-13T03:07:47.858Z,100333.56
2022-10-13T03:10:15.238Z,100330.03
2022-10-13T03:12:42.651Z,100326.22
2022-10-13T03:15:10.554Z,100327.88
2022-10-13T03:17:37.961Z,100326.88
2022-10-13T03:20:06.741Z,100325.41
2022-10-13T03:22:34.327Z,100329.22
2022-10-13T03:25:03.570Z,100326.72
2022-10-13T03:27:31.002Z,100323.38
2022-10-13T03:29:58.502Z,100333.34
2022-10-13T03:32:26.026Z,100334.00
2022-10-13T03:34:53.374Z,100335.97
2022-10-13T03:37:20.897Z,100335.16
2022-10-13T03:39:48.276Z,100336.66
2022-10-13T03:42:18.013Z,100328.53
2022-10-13T03:44:52.355Z,100334.69
2022-10-13T03:47:22.695Z,100328.66
2022-10-13T03:49:50.102Z,100326.22
2022-10-13T03:52:17.871Z,100330.03
2022-10-13T03:54:45.469Z,100326.31
2022-10-13T03:57:12.908Z,100327.81
2022-10-13T03:59:41.993Z,100335.00
2022-10-13T04:02:09.649Z,100322.03
2022-10-13T04:04:38.295Z,100320.81
2022-10-13T04:07:08.578Z,100320.16
2022-10-13T04:09:36.010Z,100316.53
2022-10-13T04:12:03.443Z,100317.19
2022-10-13T04:14:30.894Z,100305.38
2022-10-13T04:17:05.746Z,100306.25
2022-10-13T04:19:33.218Z,100306.75
2022-10-13T04:22:05.997Z,100306.59
2022-10-13T04:24:34.024Z,100295.41
2022-10-13T04:27:01.398Z,100297.25
2022-10-13T04:29:28.896Z,100303.75
2022-10-13T04:31:56.287Z,100299.03
2022-10-13T04:34:24.974Z,100287.22
2022-10-13T04:36:52.631Z,100287.50
2022-10-13T04:39:20.149Z,100285.19
2022-10-13T04:41:50.614Z,100282.78
2022-10-13T04:44:17.981Z,100291.69
2022-10-13T04:46:45.340Z,100297.03
2022-10-13T04:49:12.848Z,100297.97
2022-10-13T04:51:42.963Z,100294.28
2022-10-13T04:54:10.446Z,100285.59
2022-10-13T04:56:37.996Z,100272.81
2022-10-13T04:59:06.197Z,100284.97
2022-10-13T05:01:34.099Z,100276.97
2022-10-13T05:04:03.090Z,100275.69
2022-10-13T05:06:53.279Z,100284.25
2022-10-13T05:09:26.551Z,100264.09
2022-10-13T05:11:55.027Z,100267.72
2022-10-13T05:14:22.426Z,100275.00
2022-10-13T05:16:49.953Z,100264.09
2022-10-13T05:19:17.329Z,100265.38
2022-10-13T05:21:44.715Z,100254.72
2022-10-13T05:24:13.586Z,100251.84
2022-10-13T05:26:42.834Z,100249.25
2022-10-13T05:29:10.231Z,100248.75
2022-10-13T05:31:38.088Z,100261.63
2022-10-13T05:34:05.538Z,100257.78
2022-10-13T05:36:34.449Z,100253.38
2022-10-13T05:39:05.001Z,100250.97
2022-10-13T05:41:32.853Z,100258.13
2022-10-13T05:44:03.376Z,100258.41
2022-10-13T05:46:31.017Z,100248.03
2022-10-13T05:48:58.406Z,100248.94
2022-10-13T05:51:28.261Z,100236.38
2022-10-13T05:54:00.657Z,100236.97
2022-10-13T05:56:31.641Z,100248.84
2022-10-13T05:59:03.852Z,100250.00
2022-10-13T06:01:32.856Z,100251.03
2022-10-13T06:04:04.155Z,100254.88
2022-10-13T06:06:31.898Z,100254.31
2022-10-13T06:08:59.573Z,100255.38
2022-10-13T06:11:27.004Z,100236.78
2022-10-13T06:13:54.396Z,100244.97
2022-10-13T06:16:23.069Z,100241.13
2022-10-13T06:18:50.541Z,100236.97
2022-10-13T06:21:18.204Z,100239.34
2022-10-13T06:23:45.543Z,100242.94
2022-10-13T06:26:12.988Z,100248.53
2022-10-13T06:28:40.402Z,100239.56
2022-10-13T06:31:07.989Z,100242.47
2022-10-13T06:33:36.733Z,100246.84
2022-10-13T06:36:04.912Z,100234.84
2022-10-13T06:38:32.815Z,100237.59
2022-10-13T06:41:01.161Z,100243.03
2022-10-13T06:43:35.741Z,100231.53
2022-10-13T06:46:10.390Z,100232.72
2022-10-13T06:48:39.143Z,100231.91
2022-10-13T06:51:08.443Z,100232.44
2022-10-13T06:53:36.315Z,100240.59
2022-10-13T06:56:05.496Z,100240.66
2022-10-13T06:58:33.205Z,100234.59
2022-10-13T07:01:00.703Z,100237.19
2022-10-13T07:03:28.121Z,100241.75
2022-10-13T07:06:01.294Z,100236.97
2022-10-13T07:08:28.760Z,100241.59
2022-10-13T07:10:56.189Z,100218.78
2022-10-13T07:13:23.522Z,100216.81
2022-10-13T07:15:51.071Z,100223.28
2022-10-13T07:18:18.429Z,100230.66
2022-10-13T07:20:45.997Z,100228.75
2022-10-13T07:23:14.977Z,100221.38
2022-10-13T07:25:42.396Z,100221.38
2022-10-13T07:28:09.756Z,100222.75
2022-10-13T07:30:39.570Z,100226.09
2022-10-13T07:33:07.216Z,100223.81
2022-10-13T07:35:34.718Z,100223.22
2022-10-13T07:38:02.049Z,100220.47
2022-10-13T07:40:30.761Z,100225.81
2022-10-13T07:42:58.506Z,100218.28
2022-10-13T07:45:26.431Z,100211.56
2022-10-13T07:47:53.906Z,100222.34
2022-10-13T07:50:21.368Z,100216.75
2022-10-13T07:52:48.744Z,100217.19
2022-10-13T07:55:16.266Z,100225.34
2022-10-13T07:57:45.713Z,100217.22
2022-10-13T08:00:14.081Z,100213.81
2022-10-13T08:02:42.265Z,100217.19
2022-10-13T08:05:10.017Z,100211.91
2022-10-13T08:07:37.988Z,100218.50
2022-10-13T08:10:06.108Z,100215.16
2022-10-13T08:12:33.514Z,100214.66
2022-10-13T08:15:05.988Z,100216.94
2022-10-13T08:17:34.170Z,100220.97
2022-10-13T08:20:01.568Z,100222.88
2022-10-13T08:22:28.958Z,100223.56
2022-10-13T08:24:56.734Z,100208.03
2022-10-13T08:27:37.038Z,100210.50
2022-10-13T08:30:15.232Z,100223.91
2022-10-13T08:32:42.643Z,100226.44
2022-10-13T08:35:10.203Z,100229.25
2022-10-13T08:37:37.679Z,100229.25
2022-10-13T08:40:05.729Z,100217.88
2022-10-13T08:42:33.125Z,100228.19
2022-10-13T08:47:54.134Z,100233.38
2022-10-13T08:50:24.800Z,100222.53
2022-10-13T08:52:55.079Z,100225.00
2022-10-13T08:55:26.257Z,100226.03
2022-10-13T08:57:53.774Z,100225.22
2022-10-13T09:00:26.700Z,100223.16
2022-10-13T09:02:59.013Z,100226.44
2022-10-13T09:05:33.781Z,100223.81
2022-10-13T09:08:05.986Z,100223.31
2022-10-13T09:10:33.422Z,100220.78
2022-10-13T09:13:01.184Z,100222.81
2022-10-13T09:15:28.592Z,100201.59
2022-10-13T09:18:11.777Z,100223.31
2022-10-13T09:20:39.330Z,100220.13
2022-10-13T09:23:19.951Z,100225.22
2022-10-13T09:25:49.393Z,100228.50
2022-10-13T09:28:20.963Z,100218.34
2022-10-13T09:30:49.137Z,100227.06
2022-10-13T09:33:22.162Z,100225.44
2022-10-13T09:35:51.180Z,100225.03
2022-10-13T09:38:20.766Z,100225.22
2022-10-13T09:40:58.484Z,100217.16
2022-10-13T09:43:31.062Z,100215.72
2022-10-13T09:45:59.092Z,100208.88
2022-10-13T09:48:29.122Z,100211.81
2022-10-13T09:50:58.040Z,100203.25
2022-10-13T09:53:30.985Z,100197.75
2022-10-13T09:56:19.383Z,100197.19
2022-10-13T09:58:50.623Z,100196.25
2022-10-13T10:01:23.703Z,100192.22
2022-10-13T10:03:52.987Z,100194.41
2022-10-13T10:06:21.751Z,100192.53
2022-10-13T10:09:03.333Z,100199.97
2022-10-13T10:11:34.847Z,100192.16
2022-10-13T10:14:06.202Z,100189.06
2022-10-13T10:16:37.052Z,100192.13
2022-10-13T10:19:11.250Z,100188.25
2022-10-13T10:21:43.233Z,100179.53
2022-10-13T10:24:18.618Z,100182.47
2022-10-13T10:26:52.268Z,100176.06
2022-10-13T10:29:33.467Z,100168.19
2022-10-13T10:32:10.776Z,100169.81
2022-10-13T10:34:43.962Z,100163.41
2022-10-13T10:37:29.630Z,100165.06
2022-10-13T10:40:05.125Z,100161.91
2022-10-13T10:42:49.733Z,100163.69
2022-10-13T10:45:21.545Z,100164.78
2022-10-13T10:47:52.078Z,100159.13
2022-10-13T10:50:22.309Z,100153.78
2022-10-13T10:52:55.923Z,100155.19
2022-10-13T10:55:29.838Z,100151.78
2022-10-13T10:58:06.056Z,100151.00
2022-10-13T11:00:39.367Z,100149.41
2022-10-13T11:03:11.550Z,100142.25
2022-10-13T11:06:05.015Z,100140.19
2022-10-13T11:08:41.740Z,100136.59
2022-10-13T11:11:38.196Z,100126.75
2022-10-13T11:14:31.125Z,100122.56
2022-10-13T11:17:17.577Z,100119.97
2022-10-13T11:19:46.113Z,100114.78
2022-10-13T11:22:17.935Z,100120.81
2022-10-13T11:24:58.416Z,100114.72
2022-10-13T11:27:43.273Z,100106.69
2022-10-13T11:30:40.716Z,100106.16
2022-10-13T11:33:48.016Z,100109.25
2022-10-13T11:36:32.447Z,100103.19
2022-10-13T11:39:07.946Z,100103.47
2022-10-13T11:41:43.073Z,100100.13
2022-10-13T11:44:18.174Z,100096.63
2022-10-13T11:46:57.666Z,100096.78
2022-10-13T11:49:43.132Z,100099.19
2022-10-13T11:52:30.345Z,100091.09
2022-10-13T11:55:04.804Z,100083.59
2022-10-13T11:57:32.940Z,100076.72
2022-10-13T12:00:02.957Z,100081.97
2022-10-13T12:02:48.473Z,100072.56
2022-10-13T12:05:24.147Z,100075.91
2022-10-13T12:07:53.066Z,100079.34
2022-10-13T12:10:24.742Z,100075.53
2022-10-13T12:12:52.213Z,100077.56
2022-10-13T12:15:30.477Z,100071.75
2022-10-13T12:17:57.855Z,100079.69
2022-10-13T12:20:27.028Z,100072.03
2022-10-13T12:22:55.912Z,100070.41
2022-10-13T12:25:26.673Z,100067.88
2022-10-13T12:27:59.970Z,100059.66
2022-10-13T12:30:29.438Z,100056.03
2022-10-13T12:32:58.432Z,100061.81
2022-10-13T12:35:29.081Z,100063.09
2022-10-13T12:37:57.272Z,100062.84
2022-10-13T12:40:26.224Z,100062.06
2022-10-13T12:42:54.080Z,100057.78
2022-10-13T12:45:22.725Z,100053.13
2022-10-13T12:47:51.734Z,100051.78
2022-10-13T12:50:37.814Z,100043.38
2022-10-13T12:53:12.423Z,100047.59
2022-10-13T12:55:49.680Z,100041.44
2022-10-13T12:58:22.920Z,100036.03
2022-10-13T13:00:59.558Z,100043.00
2022-10-13T13:03:28.651Z,100044.56
2022-10-13T13:06:23.748Z,100036.31
2022-10-13T13:09:25.564Z,100040.75
2022-10-13T13:12:21.303Z,100040.41
2022-10-13T13:14:50.943Z,100036.94
2022-10-13T13:17:57.944Z,100033.41
2022-10-13T13:20:23.201Z,100035.44
2022-10-13T13:22:51.590Z,100026.66
2022-10-13T13:25:18.997Z,100037.88
2022-10-13T13:27:47.927Z,100022.84
2022-10-13T13:30:19.904Z,100030.78
2022-10-13T13:32:48.235Z,100027.38
2022-10-13T13:35:15.889Z,100027.88
2022-10-13T13:37:45.676Z,100029.84
2022-10-13T13:40:17.358Z,100016.84
2022-10-13T13:42:45.102Z,100019.38
2022-10-13T13:45:14.720Z,100010.47
2022-10-13T13:47:42.186Z,100012.00
2022-10-13T13:50:15.143Z,100008.13
2022-10-13T13:52:45.564Z,100007.31
2022-10-13T13:55:14.647Z,100010.56
2022-10-13T13:57:42.812Z,100014.25
2022-10-13T14:00:12.401Z,100020.66
2022-10-13T14:02:42.708Z,100011.81
2022-10-13T14:05:11.062Z,100009.66
2022-10-13T14:07:38.569Z,100015.75
2022-10-13T14:10:07.139Z,100013.81
2022-10-13T14:12:35.367Z,100015.66
2022-10-13T14:15:02.927Z,100022.19
2022-10-13T14:17:30.362Z,100012.69
2022-10-13T14:19:59.339Z,100014.06
2022-10-13T14:22:27.013Z,100007.25
2022-10-13T14:24:54.688Z,100007.91
2022-10-13T14:27:22.790Z,100002.72
2022-10-13T14:29:50.502Z,100006.69
2022-10-13T14:32:18.820Z,100006.25
2022-10-13T14:34:46.508Z,100001.47
2022-10-13T14:37:15.277Z,99995.31
2022-10-13T14:39:42.692Z,99998.53
2022-10-13T14:42:10.161Z,99997.13
2022-10-13T14:44:37.753Z,100008.56
2022-10-13T14:47:05.259Z,99995.63
2022-10-13T14:49:32.699Z,100005.66
2022-10-13T14:52:00.156Z,100000.75
2022-10-13T14:54:29.847Z,100001.16
2022-10-13T14:56:59.551Z,99999.03
2022-10-13T14:59:27.128Z,100000.44
2022-10-13T15:02:01.457Z,100000.44
2022-10-13T15:04:28.933Z,100003.00
2022-10-13T15:06:56.702Z,100000.25
2022-10-13T15:09:33.521Z,99986.50
2022-10-13T15:12:15.342Z,99995.28
2022-10-13T15:14:42.750Z,100000.19
2022-10-13T15:17:10.204Z,99994.28
2022-10-13T15:19:37.621Z,99990.16
2022-10-13T15:22:06.861Z,99996.72
2022-10-13T15:24:34.306Z,99996.81
2022-10-13T15:27:02.589Z,99999.41
2022-10-13T15:29:32.031Z,100001.00
2022-10-13T15:32:09.265Z,100001.34
2022-10-13T15:34:36.854Z,100002.81
2022-10-13T15:37:04.630Z,99996.56
2022-10-13T15:39:32.122Z,100004.94
2022-10-13T15:41:59.737Z,100010.88
2022-10-13T15:44:27.632Z,100003.25
2022-10-13T15:47:08.000Z,100008.78
2022-10-13T15:49:38.166Z,100014.50
2022-10-13T15:52:05.820Z,100013.97
2022-10-13T15:54:33.495Z,100010.72
2022-10-13T15:57:00.969Z,100020.13
2022-10-13T15:59:28.474Z,100026.13
2022-10-13T16:01:57.245Z,100024.13
2022-10-13T16:04:24.902Z,100041.94
2022-10-13T16:06:52.278Z,100035.19
2022-10-13T16:09:19.672Z,100046.78
2022-10-13T16:11:47.041Z,100040.88
2022-10-13T16:14:14.377Z,100040.09
2022-10-13T16:16:41.749Z,100049.13
2022-10-13T16:19:10.665Z,100046.81
2022-10-13T16:21:37.993Z,100047.06
2022-10-13T16:24:06.157Z,100039.06
2022-10-13T16:26:33.536Z,100041.56
2022-10-13T16:29:01.018Z,100039.78
2022-10-13T16:31:28.469Z,100038.81
2022-10-13T16:33:55.993Z,100037.81
2022-10-13T16:36:25.260Z,100031.31
2022-10-13T16:38:54.175Z,100041.00
2022-10-13T16:41:21.817Z,100027.56
2022-10-13T16:43:49.505Z,100036.53
2022-10-13T16:46:18.304Z,100034.81
2022-10-13T16:48:46.895Z,100040.72
2022-10-13T16:51:54.866Z,100039.84
2022-10-13T16:54:23.565Z,100034.97
2022-10-13T16:56:51.559Z,100035.38
2022-10-13T16:59:18.885Z,100031.25
2022-10-13T17:01:47.126Z,100034.59
2022-10-13T17:04:17.323Z,100034.22
2022-10-13T17:06:48.551Z,100017.84
2022-10-13T17:09:15.971Z,100030.66
2022-10-13T17:11:47.172Z,100021.25
2022-10-13T17:14:14.530Z,100022.34
2022-10-13T17:16:41.998Z,100020.75
2022-10-13T17:19:10.094Z,100023.56
2022-10-13T17:21:37.915Z,100023.47
2022-10-13T17:24:08.281Z,100022.53
2022-10-13T17:26:35.733Z,100020.94
2022-10-13T17:29:04.691Z,100013.75
2022-10-13T17:31:32.120Z,100018.41
2022-10-13T17:34:00.291Z,100024.44
2022-10-13T17:36:29.696Z,100020.81
2022-10-13T17:39:02.894Z,100015.06
2022-10-13T17:41:30.245Z,100026.16
2022-10-13T17:43:57.673Z,100018.34
2022-10-13T17:46:36.890Z,100026.97
2022-10-13T17:49:06.129Z,100028.25
2022-10-13T17:51:33.521Z,100030.72
2022-10-13T17:54:04.683Z,100025.59
2022-10-13T17:56:32.194Z,100020.94
2022-10-13T17:59:00.257Z,100030.63
2022-10-13T18:01:31.465Z,100030.31
2022-10-13T18:04:00.962Z,100021.66
2022-10-13T18:06:30.584Z,100022.84
2022-10-13T18:09:01.270Z,100012.47
2022-10-13T18:11:28.985Z,100019.63
2022-10-13T18:13:56.365Z,100013.78
2022-10-13T18:16:24.605Z,100010.13
2022-10-13T18:18:54.757Z,100012.63
2022-10-13T18:21:23.956Z,100006.44
2022-10-13T18:23:52.933Z,100002.13
2022-10-13T18:26:20.973Z,100006.66
2022-10-13T18:28:49.831Z,100007.97
2022-10-13T18:31:21.718Z,100006.91
2022-10-13T18:33:52.778Z,100008.28
2022-10-13T18:36:23.406Z,100012.69
2022-10-13T18:38:50.859Z,100014.97
2022-10-13T18:41:19.379Z,100008.28
2022-10-13T18:43:49.129Z,100010.09
2022-10-13T18:46:18.810Z,100011.41
2022-10-13T18:48:48.124Z,100001.69
2022-10-13T18:51:18.210Z,100008.81
2022-10-13T18:53:47.095Z,100010.28
2022-10-13T18:56:19.072Z,100002.94
2022-10-13T18:58:46.961Z,100007.81
2022-10-13T19:01:17.440Z,100011.72
2022-10-13T19:03:45.451Z,100005.59
2022-10-13T19:06:15.125Z,100007.53
2022-10-13T19:08:48.108Z,100001.78
2022-10-13T19:11:16.874Z,99993.69
2022-10-13T19:13:44.560Z,99988.81
2022-10-13T19:16:13.052Z,99990.94
2022-10-13T19:18:40.599Z,99989.03
2022-10-13T19:21:08.169Z,99993.91
2022-10-13T19:23:35.545Z,99989.97
2022-10-13T19:26:12.468Z,99987.19
2022-10-13T19:28:42.639Z,99993.16
2022-10-13T19:31:10.564Z,99995.69
2022-10-13T19:33:44.821Z,100000.09
2022-10-13T19:36:21.551Z,99993.84
2022-10-13T19:38:49.635Z,99994.25
2022-10-13T19:41:18.957Z,99999.72
2022-10-13T19:43:46.375Z,100001.16
2022-10-13T19:46:13.865Z,99995.31
2022-10-13T19:48:41.296Z,99991.00
2022-10-13T19:51:10.012Z,99997.28
2022-10-13T19:53:40.860Z,100001.03
2022-10-13T19:56:09.265Z,99995.97
2022-10-13T19:58:37.997Z,99996.97
2022-10-13T20:01:08.163Z,100004.72
2022-10-13T20:03:35.756Z,99998.25
2022-10-13T20:06:06.872Z,100001.69
2022-10-13T20:08:39.017Z,99995.53
2022-10-13T20:11:07.397Z,99999.78
2022-10-13T20:13:34.859Z,99997.63
2022-10-13T20:16:07.290Z,100003.66
2022-10-13T20:18:34.971Z,100010.88
2022-10-13T20:21:04.215Z,100008.94
2022-10-13T20:23:32.697Z,100005.28
2022-10-13T20:26:02.921Z,100009.06
2022-10-13T20:28:39.196Z,100008.25
2022-10-13T20:31:11.382Z,100006.69
2022-10-13T20:33:38.921Z,100007.41
2022-10-13T20:36:08.660Z,100010.84
2022-10-13T20:38:36.650Z,100016.44
2022-10-13T20:41:04.962Z,100012.41
2022-10-13T20:43:32.381Z,100018.59
2022-10-13T20:46:00.994Z,100014.69
2022-10-13T20:48:45.572Z,100018.41
2022-10-13T20:51:20.605Z,100015.34
2022-10-13T20:53:48.558Z,100018.22
2022-10-13T20:56:18.201Z,100019.19
2022-10-13T20:58:46.233Z,100015.03
2022-10-13T21:01:13.888Z,100023.16
2022-10-13T21:03:42.656Z,100022.00
2022-10-13T21:06:11.914Z,100026.69
2022-10-13T21:08:39.497Z,100020.63
2022-10-13T21:11:12.651Z,100021.38
2022-10-13T21:13:42.457Z,100018.22
2022-10-13T21:16:12.126Z,100026.88
2022-10-13T21:18:39.692Z,100018.72
2022-10-13T21:21:09.704Z,100022.38
2022-10-13T21:23:37.208Z,100022.41
2022-10-13T21:26:05.788Z,100020.13
2022-10-13T21:28:33.899Z,100022.41
2022-10-13T21:31:05.706Z,100024.66
2022-10-13T21:33:35.698Z,100017.81
2022-10-13T21:36:08.711Z,100014.03
2022-10-13T21:38:36.479Z,100014.22
2022-10-13T21:41:05.109Z,100004.91
2022-10-13T21:43:32.677Z,100009.00
2022-10-13T21:46:08.968Z,100010.28
2022-10-13T21:48:43.254Z,100012.47
2022-10-13T21:51:13.449Z,100009.34
2022-10-13T21:53:41.202Z,100003.94
2022-10-13T21:56:11.279Z,100002.97
2022-10-13T21:58:39.253Z,100015.97
2022-10-13T22:01:07.080Z,100007.34
2022-10-13T22:03:34.818Z,100011.56
2022-10-13T22:06:06.508Z,100007.97
2022-10-13T22:08:38.710Z,100011.31
2022-10-13T22:11:14.023Z,100006.91
2022-10-13T22:13:41.581Z,100001.25
2022-10-13T22:16:11.714Z,100003.59
2022-10-13T22:18:43.017Z,99999.97
2022-10-13T22:21:13.265Z,99992.47
2022-10-13T22:23:42.086Z,99995.84
2022-10-13T22:26:10.157Z,99983.72
2022-10-13T22:28:38.024Z,99991.75
2022-10-13T22:31:05.820Z,99993.03
2022-10-13T22:33:34.810Z,99992.69
2022-10-13T22:36:03.617Z,99993.41
2022-10-13T22:38:30.975Z,99988.28
2022-10-13T22:41:03.712Z,99988.81
2022-10-13T22:43:31.105Z,99990.91
2022-10-13T22:46:01.824Z,99996.41
2022-10-13T22:48:29.447Z,99986.16
2022-10-13T22:50:58.779Z,99985.16
2022-10-13T22:53:29.789Z,99986.56
2022-10-13T22:55:57.149Z,99987.03
2022-10-13T22:58:25.919Z,99989.47
2022-10-13T23:00:56.078Z,99987.75
2022-10-13T23:03:23.740Z,99991.84
2022-10-13T23:05:54.474Z,99990.88
2022-10-13T23:08:21.836Z,99988.19
2022-10-13T23:10:49.197Z,99988.66
2022-10-13T23:13:16.649Z,99990.53
2022-10-13T23:15:47.875Z,99990.41
2022-10-13T23:18:15.353Z,99999.25
2022-10-13T23:20:43.204Z,99987.88
2022-10-13T23:23:11.041Z,99991.25
2022-10-13T23:25:38.630Z,99983.25
2022-10-13T23:28:06.033Z,99990.88
2022-10-13T23:30:33.506Z,99991.34
2022-10-13T23:33:02.265Z,99981.25
2022-10-13T23:35:29.617Z,99983.84
2022-10-13T23:37:57.018Z,99983.22
2022-10-13T23:40:24.402Z,99980.75
2022-10-13T23:42:51.986Z,99978.47
2022-10-13T23:45:19.320Z,99979.03
2022-10-13T23:47:46.775Z,99977.06
2022-10-13T23:50:15.726Z,99974.91
2022-10-13T23:52:43.076Z,99979.25
2022-10-13T23:55:10.464Z,99972.03
2022-10-13T23:57:37.837Z,99975.91
